Time;durP1;ratioP1;P1;durP2;ratioP2;P2;SDS_P1;SDS_P2;PMS_P1;PMS_P2;Temp;Humidity;BMP_temperature;BMP_pressure;BME280_temperature;BME280_humidity;BME280_pressure;Samples;Min_cycle;Max_cycle;Signal;HPM_P1;HPM_P2
2023/05/07 00:02:03;;;;;;;8.52;7.72;;;;;;;13.64;100.00;101500.06;5008975;28;20030;-81
2023/05/07 00:04:35;;;;;;;9.25;7.30;;;;;;;13.66;100.00;101505.25;5017909;28;20025;-81
2023/05/07 00:07:01;;;;;;;8.65;7.75;;;;;;;13.68;100.00;101509.44;5029290;28;20045;-81
2023/05/07 00:09:26;;;;;;;8.57;7.00;;;;;;;13.67;100.00;101505.13;5035747;28;20025;-81
2023/05/07 00:11:51;;;;;;;9.13;7.68;;;;;;;13.69;100.00;101500.56;5028581;28;20025;-81
2023/05/07 00:14:17;;;;;;;8.20;7.38;;;;;;;13.68;100.00;101501.53;5026456;28;20028;-81
2023/05/07 00:16:42;;;;;;;12.65;6.90;;;;;;;13.70;100.00;101504.88;5027966;28;20108;-81
2023/05/07 00:19:07;;;;;;;9.38;7.22;;;;;;;13.71;100.00;101501.28;5026980;28;20022;-81
2023/05/07 00:21:33;;;;;;;7.00;6.25;;;;;;;13.69;100.00;101497.91;5028889;28;20029;-81
2023/05/07 00:23:58;;;;;;;7.43;6.63;;;;;;;13.69;100.00;101497.91;5023990;28;20071;-81
2023/05/07 00:26:23;;;;;;;7.65;6.95;;;;;;;13.71;100.00;101490.72;5019387;28;20021;-81
2023/05/07 00:28:49;;;;;;;9.15;7.00;;;;;;;13.71;100.00;101493.34;5027174;28;20025;-81
2023/05/07 00:31:14;;;;;;;7.70;6.93;;;;;;;13.70;100.00;101493.47;5027917;28;20029;-81
2023/05/07 00:33:39;;;;;;;7.80;7.00;;;;;;;13.71;100.00;101493.34;5013003;28;20021;-81
2023/05/07 00:36:05;;;;;;;7.70;7.00;;;;;;;13.69;100.00;101495.28;5019837;28;20029;-81
2023/05/07 00:38:30;;;;;;;8.88;7.55;;;;;;;13.68;100.00;101496.22;5025949;28;20029;-81
2023/05/07 00:40:56;;;;;;;8.23;7.28;;;;;;;13.69;100.00;101492.63;5028511;28;20029;-81
2023/05/07 00:43:21;;;;;;;8.70;7.25;;;;;;;13.68;100.00;101490.94;5029407;28;20048;-81
2023/05/07 00:45:47;;;;;;;12.93;7.63;;;;;;;13.66;100.00;101487.56;5028672;28;20036;-82
2023/05/07 00:48:12;;;;;;;8.48;7.22;;;;;;;13.69;100.00;101487.34;5028950;28;20060;-81
2023/05/07 00:50:38;;;;;;;8.55;7.75;;;;;;;13.68;100.00;101480.38;5021411;28;20029;-81
2023/05/07 00:53:04;;;;;;;8.95;7.50;;;;;;;13.71;100.00;101480.13;5028897;28;20033;-81
2023/05/07 00:55:32;;;;;;;8.18;7.28;;;;;;;13.72;100.00;101479.16;5025023;28;20026;-81
2023/05/07 00:57:58;;;;;;;9.57;8.25;;;;;;;13.70;100.00;101478.44;5014177;28;20026;-81
2023/05/07 01:00:30;;;;;;;10.57;8.43;;;;;;;13.71;100.00;101474.84;5013173;28;20030;-81
2023/05/07 01:02:55;;;;;;;11.02;8.52;;;;;;;13.72;100.00;101484.44;5014245;28;20364;-81
2023/05/07 01:05:24;;;;;;;8.82;7.95;;;;;;;13.71;100.00;101485.41;5033110;28;20036;-81
2023/05/07 01:07:52;;;;;;;9.68;8.57;;;;;;;13.73;100.00;101483.50;5037857;28;20131;-81
2023/05/07 01:10:21;;;;;;;9.90;8.90;;;;;;;13.71;100.00;101487.22;5015285;28;20393;-81
2023/05/07 01:12:48;;;;;;;12.40;9.05;;;;;;;13.74;100.00;101487.81;5031769;28;20100;-81
2023/05/07 01:15:14;;;;;;;9.90;8.90;;;;;;;13.74;100.00;101484.34;5029730;28;20385;-81
2023/05/07 01:17:41;;;;;;;10.10;9.10;;;;;;;13.70;100.00;101482.88;5032446;28;20032;-81
2023/05/07 01:20:10;;;;;;;10.13;9.10;;;;;;;13.74;100.00;101474.59;5033483;28;20039;-81
2023/05/07 01:22:36;;;;;;;10.40;9.30;;;;;;;13.74;100.00;101474.59;5033389;28;20445;-81
2023/05/07 01:25:03;;;;;;;10.93;9.82;;;;;;;13.73;100.00;101470.28;5032885;28;20109;-81
2023/05/07 01:27:28;;;;;;;10.75;9.65;;;;;;;13.74;100.00;101465.81;5044286;28;20029;-81
2023/05/07 01:29:55;;;;;;;12.25;9.38;;;;;;;13.70;100.00;101462.56;5032640;28;20071;-81
2023/05/07 01:32:36;;;;;;;13.65;10.18;;;;;;;13.69;100.00;101460.88;5021514;28;20037;-81
2023/05/07 01:35:04;;;;;;;11.35;10.20;;;;;;;13.66;100.00;101452.34;5012047;28;20072;-81
2023/05/07 01:37:30;;;;;;;12.88;10.45;;;;;;;13.65;100.00;101450.66;5014914;28;20030;-81
2023/05/07 01:39:56;;;;;;;13.32;11.10;;;;;;;13.65;100.00;101453.31;5031323;28;20079;-81
2023/05/07 01:42:22;;;;;;;12.63;11.38;;;;;;;13.64;100.00;101452.47;5028850;28;20048;-81
2023/05/07 01:44:47;;;;;;;13.45;12.05;;;;;;;13.65;100.00;101454.16;5029427;28;20037;-81
2023/05/07 01:47:14;;;;;;;13.43;11.90;;;;;;;13.64;100.00;101451.63;5030196;28;20090;-81
2023/05/07 01:49:42;;;;;;;14.57;13.07;;;;;;;13.63;100.00;101453.44;5019013;28;20075;-81
2023/05/07 01:52:08;;;;;;;14.85;13.35;;;;;;;13.64;100.00;101449.84;5018800;28;20026;-81
2023/05/07 01:54:33;;;;;;;14.50;13.02;;;;;;;13.62;100.00;101453.56;5032233;28;20378;-81
2023/05/07 01:57:05;;;;;;;16.15;14.55;;;;;;;13.58;100.00;101446.78;5031845;28;20028;-81
2023/05/07 01:59:30;;;;;;;16.65;14.95;;;;;;;13.60;100.00;101445.72;5031060;28;20568;-81
2023/05/07 02:02:05;;;;;;;16.48;14.88;;;;;;;13.58;100.00;101446.78;5032574;28;20017;-81
2023/05/07 02:04:31;;;;;;;17.33;15.63;;;;;;;13.59;100.00;101444.03;5030779;28;20030;-81
2023/05/07 02:06:56;;;;;;;19.23;16.55;;;;;;;13.56;100.00;101438.97;5020058;28;20026;-81
2023/05/07 02:09:24;;;;;;;19.42;16.52;;;;;;;13.55;100.00;101442.59;5050628;28;20016;-81
2023/05/07 02:11:50;;;;;;;18.92;17.13;;;;;;;13.54;100.00;101435.59;5052534;28;20031;-81
2023/05/07 02:14:15;;;;;;;18.02;16.27;;;;;;;13.57;100.00;101439.81;5029275;28;20037;-81
2023/05/07 02:16:41;;;;;;;18.90;17.20;;;;;;;13.59;100.00;101446.66;5029236;28;20025;-81
2023/05/07 02:19:06;;;;;;;18.40;16.63;;;;;;;13.59;100.00;101445.81;5031849;28;20043;-81
2023/05/07 02:21:32;;;;;;;18.98;17.13;;;;;;;13.57;100.00;101445.94;5032030;28;20025;-81
2023/05/07 02:23:57;;;;;;;19.70;17.63;;;;;;;13.55;100.00;101450.50;5028495;28;20075;-81
2023/05/07 02:26:25;;;;;;;18.55;16.85;;;;;;;13.56;100.00;101452.19;5034316;28;20044;-81
2023/05/07 02:28:51;;;;;;;19.70;17.90;;;;;;;13.54;100.00;101451.47;5028887;28;20026;-81
2023/05/07 02:31:16;;;;;;;20.55;18.55;;;;;;;13.56;100.00;101454.00;5030454;28;20076;-81
2023/05/07 02:33:42;;;;;;;20.83;18.75;;;;;;;13.54;100.00;101451.47;5031456;28;20025;-81
2023/05/07 02:36:09;;;;;;;21.10;19.02;;;;;;;13.57;100.00;101461.81;5031703;28;20485;-81
2023/05/07 02:38:34;;;;;;;21.63;19.48;;;;;;;13.59;100.00;101453.75;5028884;28;20062;-81
2023/05/07 02:41:00;;;;;;;21.35;19.15;;;;;;;13.57;100.00;101456.53;5028033;28;20061;-81
2023/05/07 02:43:25;;;;;;;21.58;19.45;;;;;;;13.59;100.00;101454.59;5019455;28;20504;-81
2023/05/07 02:46:09;;;;;;;20.98;18.95;;;;;;;13.58;100.00;101452.91;5025700;28;20036;-81
2023/05/07 02:48:52;;;;;;;20.50;18.60;;;;;;;13.58;100.00;101452.06;5012243;28;20033;-81
2023/05/07 02:51:20;;;;;;;20.38;18.27;;;;;;;13.57;100.00;101458.31;5031039;28;20029;-81
2023/05/07 02:53:46;;;;;;;20.30;18.30;;;;;;;13.53;100.00;101463.00;5030988;28;20066;-81
2023/05/07 02:56:11;;;;;;;22.00;19.80;;;;;;;13.57;100.00;101459.16;5029836;28;20021;-81
2023/05/07 02:58:36;;;;;;;23.13;20.73;;;;;;;13.59;100.00;101454.59;5029772;28;20031;-80
2023/05/07 03:01:08;;;;;;;23.13;20.67;;;;;;;13.61;100.00;101452.72;5025778;28;20045;-80
2023/05/07 03:03:35;;;;;;;23.55;21.15;;;;;;;13.61;100.00;101450.06;5031500;28;20466;-80
2023/05/07 03:06:01;;;;;;;22.77;20.58;;;;;;;13.64;100.00;101446.34;5030080;28;20028;-80
2023/05/07 03:08:26;;;;;;;23.33;20.85;;;;;;;13.64;100.00;101444.53;5044514;28;20025;-80
2023/05/07 03:10:52;;;;;;;23.67;21.17;;;;;;;13.64;100.00;101444.53;5044255;28;20029;-80
2023/05/07 03:13:17;;;;;;;23.90;21.50;;;;;;;13.67;100.00;101449.59;5028212;28;20041;-80
2023/05/07 03:15:43;;;;;;;24.77;22.38;;;;;;;13.65;100.00;101454.16;5025285;28;20079;-80
2023/05/07 03:18:10;;;;;;;24.58;22.02;;;;;;;13.65;100.00;101454.16;5019106;28;20052;-80
2023/05/07 03:20:36;;;;;;;24.35;22.05;;;;;;;13.65;100.00;101443.56;5028310;28;20091;-80
2023/05/07 03:23:01;;;;;;;25.58;22.98;;;;;;;13.63;100.00;101440.22;5029130;28;20045;-80
2023/05/07 03:25:27;;;;;;;25.27;22.83;;;;;;;13.68;100.00;101447.78;5035058;28;20013;-80
2023/05/07 03:27:56;;;;;;;26.30;23.80;;;;;;;13.67;100.00;101446.94;5033523;28;20028;-80
2023/05/07 03:30:23;;;;;;;27.42;24.63;;;;;;;13.63;100.00;101434.94;5029939;28;20393;-80
2023/05/07 03:32:48;;;;;;;27.85;25.00;;;;;;;13.67;100.00;101436.38;5028659;28;20764;-80
2023/05/07 03:35:13;;;;;;;27.05;24.25;;;;;;;13.67;100.00;101433.72;5017113;28;20108;-80
2023/05/07 03:37:43;;;;;;;26.90;24.23;;;;;;;13.66;100.00;101436.50;5029374;28;20390;-80
2023/05/07 03:40:10;;;;;;;27.95;25.15;;;;;;;13.64;100.00;101438.41;5029624;28;20489;-80
2023/05/07 03:42:35;;;;;;;27.40;24.80;;;;;;;13.64;100.00;101430.47;5028554;28;20045;-80
2023/05/07 03:45:01;;;;;;;33.08;26.60;;;;;;;13.65;100.00;101433.00;5028149;28;20028;-80
2023/05/07 03:47:27;;;;;;;28.27;25.48;;;;;;;13.67;100.00;101435.53;5028508;28;20037;-80
2023/05/07 03:49:53;;;;;;;30.15;27.15;;;;;;;13.63;100.00;101434.94;5015645;28;20498;-80
2023/05/07 03:52:23;;;;;;;29.65;26.67;;;;;;;13.63;100.00;101429.63;5023064;28;20041;-80
2023/05/07 03:55:05;;;;;;;30.02;26.92;;;;;;;13.64;100.00;101438.41;5028862;28;20060;-80
2023/05/07 03:57:30;;;;;;;29.10;26.40;;;;;;;13.65;100.00;101442.75;5028802;28;20029;-80
2023/05/07 03:59:56;;;;;;;30.48;27.55;;;;;;;13.62;100.00;101443.81;5028842;28;20109;-80
2023/05/07 04:02:22;;;;;;;30.77;27.67;;;;;;;13.62;100.00;101446.47;5027540;28;20277;-80
2023/05/07 04:04:49;;;;;;;29.02;26.05;;;;;;;13.64;100.00;101452.47;5023532;28;20033;-80
2023/05/07 04:07:14;;;;;;;29.67;26.83;;;;;;;13.61;100.00;101452.72;5018740;28;20429;-80
2023/05/07 04:09:40;;;;;;;27.58;24.98;;;;;;;13.61;100.00;101452.72;5029677;28;20025;-81
2023/05/07 04:12:05;;;;;;;28.75;25.83;;;;;;;13.60;100.00;101456.28;5028042;28;20399;-81
2023/05/07 04:14:32;;;;;;;28.38;25.73;;;;;;;13.60;100.00;101461.56;5029004;28;20088;-81
2023/05/07 04:16:58;;;;;;;28.42;25.60;;;;;;;13.56;100.00;101456.66;5027201;28;20041;-81
2023/05/07 04:19:23;;;;;;;29.65;26.65;;;;;;;13.55;100.00;101463.72;5023773;28;20121;-80
2023/05/07 04:21:49;;;;;;;29.02;26.05;;;;;;;13.54;100.00;101458.56;5015442;28;20097;-81
2023/05/07 04:24:14;;;;;;;29.83;26.80;;;;;;;13.54;100.00;101462.06;5027500;28;20684;-80
2023/05/07 04:26:40;;;;;;;30.38;27.40;;;;;;;13.53;100.00;101462.16;5034548;28;20033;-80
2023/05/07 04:29:08;;;;;;;30.35;27.35;;;;;;;13.55;100.00;101454.97;5028502;28;20049;-80
2023/05/07 04:31:33;;;;;;;30.05;27.30;;;;;;;13.59;100.00;101465.19;5029429;28;20478;-80
2023/05/07 04:34:01;;;;;;;30.77;27.88;;;;;;;13.61;100.00;101467.69;5034108;28;20024;-81
2023/05/07 04:36:29;;;;;;;32.50;29.27;;;;;;;13.59;100.00;101459.88;5031438;28;20525;-80
2023/05/07 04:38:58;;;;;;;33.83;30.20;;;;;;;13.59;100.00;101462.53;5023542;28;20025;-80
2023/05/07 04:41:24;;;;;;;32.97;29.58;;;;;;;13.64;100.00;101463.06;5027809;28;20046;-80
2023/05/07 04:43:51;;;;;;;33.17;29.88;;;;;;;13.64;100.00;101457.75;5013651;28;20467;-81
2023/05/07 04:46:17;;;;;;;33.80;30.15;;;;;;;13.63;100.00;101460.53;5027433;28;20021;-81
2023/05/07 04:48:42;;;;;;;35.22;31.77;;;;;;;13.62;100.00;101464.97;5031793;28;20453;-80
2023/05/07 04:51:08;;;;;;;34.72;31.08;;;;;;;13.63;100.00;101469.31;5032547;28;20175;-80
2023/05/07 04:53:34;;;;;;;33.30;29.98;;;;;;;13.66;100.00;101468.22;5030096;28;20068;-80
2023/05/07 04:56:03;;;;;;;34.65;31.10;;;;;;;13.67;100.00;101477.84;5030724;28;20399;-80
2023/05/07 04:58:35;;;;;;;33.30;30.08;;;;;;;13.68;100.00;101477.72;5024276;28;20026;-81
2023/05/07 05:01:00;;;;;;;34.30;30.63;;;;;;;13.67;100.00;101470.75;5032159;28;20037;-80
2023/05/07 05:03:26;;;;;;;34.42;30.85;;;;;;;13.68;100.00;101477.72;5032748;28;20037;-80
2023/05/07 05:05:55;;;;;;;33.97;30.63;;;;;;;13.72;100.00;101479.16;5031252;28;20474;-80
2023/05/07 05:08:20;;;;;;;34.03;30.73;;;;;;;13.76;100.00;101483.25;5032924;28;20033;-80
2023/05/07 05:10:45;;;;;;;36.05;32.35;;;;;;;13.80;100.00;101479.41;5031829;28;20022;-80
2023/05/07 05:13:21;;;;;;;35.80;32.17;;;;;;;13.85;100.00;101480.84;5032040;28;20492;-80
2023/05/07 05:15:49;;;;;;;34.50;31.20;;;;;;;13.87;100.00;101478.94;5018156;28;20449;-80
2023/05/07 05:18:14;;;;;;;34.50;31.13;;;;;;;13.96;100.00;101483.50;5020630;28;20049;-80
2023/05/07 05:20:46;;;;;;;34.10;30.70;;;;;;;13.99;100.00;101485.91;5031386;28;20072;-80
2023/05/07 05:23:11;;;;;;;31.98;28.88;;;;;;;14.02;100.00;101485.69;5032489;28;20022;-80
2023/05/07 05:25:39;;;;;;;33.50;30.13;;;;;;;14.09;100.00;101486.88;5038082;28;20021;-80
2023/05/07 05:28:13;;;;;;;33.72;30.33;;;;;;;14.08;100.00;101495.78;5051658;28;20533;-80
2023/05/07 05:30:43;;;;;;;32.38;29.08;;;;;;;14.13;100.00;101496.28;5038613;28;20037;-80
2023/05/07 05:33:09;;;;;;;32.75;29.45;;;;;;;14.16;100.00;101493.38;5027548;28;20159;-80
2023/05/07 05:35:40;;;;;;;34.60;31.23;;;;;;;14.15;100.00;101497.00;5021956;28;20112;-80
2023/05/07 05:38:06;;;;;;;34.13;30.80;;;;;;;14.20;100.00;101496.63;5031922;28;20022;-80
2023/05/07 05:40:34;;;;;;;33.92;30.73;;;;;;;14.24;100.00;101498.91;5029287;28;20147;-80
2023/05/07 05:43:00;;;;;;;34.90;31.33;;;;;;;14.24;100.00;101501.56;5031181;28;20060;-80
2023/05/07 05:45:26;;;;;;;34.15;30.85;;;;;;;14.27;100.00;101509.25;5032014;28;20082;-80
2023/05/07 05:47:56;;;;;;;34.28;30.98;;;;;;;14.33;100.00;101505.28;5031931;28;20474;-80
2023/05/07 05:50:21;;;;;;;34.20;31.10;;;;;;;14.40;100.00;101509.94;5014029;28;20096;-80
2023/05/07 05:52:47;;;;;;;32.92;29.88;;;;;;;14.44;100.00;101509.78;5030552;28;20502;-80
2023/05/07 05:55:12;;;;;;;32.63;29.33;;;;;;;14.45;100.00;101514.09;5029420;28;20466;-80
2023/05/07 05:57:38;;;;;;;32.25;29.05;;;;;;;14.46;100.00;101503.38;5031843;28;20063;-80
2023/05/07 06:00:04;;;;;;;31.55;28.52;;;;;;;14.53;100.00;101504.56;5029726;28;20410;-80
2023/05/07 06:02:32;;;;;;;31.48;28.48;;;;;;;14.53;100.00;101516.97;5040487;28;20032;-80
2023/05/07 06:04:57;;;;;;;30.92;27.75;;;;;;;14.58;100.00;101507.69;5020449;28;20374;-80
2023/05/07 06:07:23;;;;;;;30.38;27.48;;;;;;;14.63;100.00;101502.03;5021505;28;20023;-80
2023/05/07 06:09:48;;;;;;;30.38;27.52;;;;;;;14.67;100.00;101506.09;5034575;28;20040;-80
2023/05/07 06:12:13;;;;;;;30.20;27.30;;;;;;;14.72;100.00;101504.75;5029736;28;20052;-80
2023/05/07 06:14:38;;;;;;;28.65;25.75;;;;;;;14.79;100.00;101502.44;5030576;28;20494;-80
2023/05/07 06:17:05;;;;;;;27.92;25.02;;;;;;;14.84;100.00;101505.59;5030787;28;20100;-80
2023/05/07 06:19:30;;;;;;;27.58;25.00;;;;;;;14.81;100.00;101504.97;5031467;28;20041;-80
2023/05/07 06:21:56;;;;;;;28.27;25.77;;;;;;;14.91;100.00;101509.44;5023512;28;20109;-80
2023/05/07 06:24:22;;;;;;;27.88;25.27;;;;;;;14.99;100.00;101511.44;5029654;28;20022;-80
2023/05/07 06:26:47;;;;;;;27.88;25.08;;;;;;;15.01;100.00;101501.56;5037142;28;20033;-80
2023/05/07 06:29:13;;;;;;;27.67;24.92;;;;;;;15.10;100.00;101502.59;5031162;28;20486;-80
2023/05/07 06:31:38;;;;;;;26.83;24.10;;;;;;;15.15;100.00;101497.75;5023485;28;20442;-80
2023/05/07 06:34:03;;;;;;;25.98;23.45;;;;;;;15.15;100.00;101497.75;5039044;28;20116;-80
2023/05/07 06:36:36;;;;;;;25.33;23.05;;;;;;;15.17;100.00;101509.91;5030071;28;20021;-80
2023/05/07 06:39:17;;;;;;;25.23;22.80;;;;;;;15.29;100.00;101502.78;5023808;28;20030;-80
2023/05/07 06:41:46;;;;;;;25.35;22.92;;;;;;;15.28;100.00;101507.25;5021120;28;20079;-80
2023/05/07 06:44:11;;;;;;;23.05;20.85;;;;;;;15.35;100.00;101512.88;5026974;28;20037;-80
2023/05/07 06:46:37;;;;;;;23.85;21.13;;;;;;;15.43;100.00;101518.38;5029806;28;20025;-80
2023/05/07 06:49:05;;;;;;;24.25;21.80;;;;;;;15.41;100.00;101516.81;5030321;28;20108;-80
2023/05/07 06:51:30;;;;;;;23.92;21.73;;;;;;;15.44;100.00;101520.06;5024835;28;20298;-80
2023/05/07 06:53:57;;;;;;;21.83;19.83;;;;;;;15.52;100.00;101530.84;5015959;28;20018;-80
2023/05/07 06:56:23;;;;;;;21.95;19.73;;;;;;;15.54;100.00;101528.91;5028925;28;20340;-80
2023/05/07 06:58:48;;;;;;;26.23;23.33;;;;;;;15.57;100.00;101531.31;5019023;28;20071;-80
2023/05/07 07:01:14;;;;;;;22.77;20.38;;;;;;;15.62;100.00;101537.13;5028310;28;20481;-80
2023/05/07 07:03:39;;;;;;;23.20;21.02;;;;;;;15.63;100.00;101533.50;5028916;28;20367;-80
2023/05/07 07:06:12;;;;;;;23.00;20.90;;;;;;;15.62;100.00;101529.16;5026416;28;20038;-80
2023/05/07 07:08:51;;;;;;;21.70;19.50;;;;;;;15.65;100.00;101522.75;5040736;28;20029;-80
2023/05/07 07:11:16;;;;;;;21.23;19.23;;;;;;;15.63;100.00;101527.34;5024564;28;20029;-80
2023/05/07 07:13:42;;;;;;;20.08;18.15;;;;;;;15.65;100.00;101525.41;5024155;28;20037;-80
2023/05/07 07:16:15;;;;;;;20.73;18.63;;;;;;;15.63;100.00;101522.88;5021850;28;20032;-80
2023/05/07 07:18:43;;;;;;;21.27;19.23;;;;;;;15.68;100.00;101534.91;5030408;28;20027;-80
2023/05/07 07:21:08;;;;;;;19.92;17.95;;;;;;;15.72;100.00;101528.38;5029413;28;20062;-81
2023/05/07 07:23:33;;;;;;;21.38;19.35;;;;;;;15.77;100.00;101539.44;5030184;28;20053;-81
2023/05/07 07:26:06;;;;;;;21.30;19.20;;;;;;;15.79;100.00;101533.03;5035636;28;20568;-81
2023/05/07 07:28:33;;;;;;;;;;;;;;;15.96;100.00;101528.94;5022162;28;20045;-81
2023/05/07 07:30:58;;;;;;;20.67;18.52;;;;;;;15.97;100.00;101536.75;5022891;28;19917;-81
2023/05/07 07:33:30;;;;;;;21.25;19.08;;;;;;;16.03;100.00;101534.56;5027317;28;20097;-81
2023/05/07 07:35:56;;;;;;;18.75;17.05;;;;;;;16.10;100.00;101541.88;5014307;28;20405;-80
2023/05/07 07:38:22;;;;;;;19.30;17.40;;;;;;;16.18;100.00;101550.00;5025380;28;20021;-81
2023/05/07 07:40:47;;;;;;;19.23;17.23;;;;;;;16.23;100.00;101542.50;5027297;28;20417;-81
2023/05/07 07:43:16;;;;;;;18.58;16.77;;;;;;;16.32;100.00;101542.66;5029250;28;20075;-81
2023/05/07 07:45:42;;;;;;;19.33;17.52;;;;;;;16.37;100.00;101545.75;5028119;28;20069;-81
2023/05/07 07:48:07;;;;;;;19.70;17.80;;;;;;;16.44;100.00;101542.44;5026001;28;20510;-81
2023/05/07 07:50:32;;;;;;;19.25;17.45;;;;;;;16.59;100.00;101546.41;5010324;28;20125;-81
2023/05/07 07:53:06;;;;;;;19.30;17.48;;;;;;;16.70;100.00;101548.13;5023650;28;20080;-81
2023/05/07 07:55:32;;;;;;;18.77;16.98;;;;;;;16.72;100.00;101546.19;5023548;28;20104;-81
2023/05/07 07:57:57;;;;;;;19.50;17.58;;;;;;;16.79;100.00;101547.31;5027757;28;20124;-82
2023/05/07 08:00:24;;;;;;;17.65;15.95;;;;;;;16.78;100.00;101553.59;5028621;28;20433;-80
2023/05/07 08:02:50;;;;;;;18.23;16.42;;;;;;;16.81;100.00;101548.03;5022969;28;20394;-80
2023/05/07 08:05:16;;;;;;;18.05;16.08;;;;;;;16.97;100.00;101549.31;5026627;28;20021;-80
2023/05/07 08:07:41;;;;;;;17.65;15.90;;;;;;;17.09;100.00;101545.56;5024704;28;20056;-81
2023/05/07 08:10:06;;;;;;;18.25;16.33;;;;;;;17.05;100.00;101546.81;5019033;28;20044;-82
2023/05/07 08:12:32;;;;;;;18.40;16.50;;;;;;;17.11;99.94;101543.59;5029855;28;20151;-81
2023/05/07 08:14:57;;;;;;;17.17;15.57;;;;;;;17.18;100.00;101544.72;5029773;28;20018;-81
2023/05/07 08:17:23;;;;;;;16.45;14.82;;;;;;;17.23;98.41;101545.16;5026995;28;20091;-76
2023/05/07 08:19:48;;;;;;;17.17;15.43;;;;;;;17.34;99.72;101552.16;5029351;28;20022;-75
2023/05/07 08:22:18;;;;;;;16.55;14.95;;;;;;;17.40;97.68;101555.09;5027999;28;20021;-76
2023/05/07 08:24:46;;;;;;;17.80;16.10;;;;;;;17.49;98.23;101554.25;5029431;28;20029;-77
2023/05/07 08:27:17;;;;;;;17.90;16.30;;;;;;;17.74;99.00;101552.84;5022965;28;20029;-77
2023/05/07 08:29:47;;;;;;;17.75;15.85;;;;;;;17.87;96.83;101555.22;5018516;28;20029;-77
2023/05/07 08:32:13;;;;;;;18.10;16.50;;;;;;;17.98;96.83;101557.69;5025475;28;20032;-77
2023/05/07 08:34:39;;;;;;;19.35;17.48;;;;;;;18.05;97.74;101550.00;5029125;28;20018;-76
2023/05/07 08:37:04;;;;;;;18.27;16.27;;;;;;;18.07;95.64;101553.34;5019680;28;20044;-77
2023/05/07 08:39:30;;;;;;;19.02;15.45;;;;;;;17.99;94.61;101556.72;5026395;28;20021;-77
2023/05/07 08:42:05;;;;;;;19.73;16.42;;;;;;;18.06;95.91;101552.50;5027669;28;20131;-76
2023/05/07 08:44:38;;;;;;;17.83;16.00;;;;;;;17.92;95.03;101566.25;5024502;28;20406;-76
2023/05/07 08:47:06;;;;;;;18.17;16.27;;;;;;;17.95;96.18;101560.66;5024355;28;20120;-80
2023/05/07 08:49:34;;;;;;;16.35;14.73;;;;;;;17.88;94.78;101564.88;5027601;28;20026;-80
2023/05/07 08:52:05;;;;;;;18.13;16.27;;;;;;;18.05;95.27;101572.13;5026004;28;20029;-80
2023/05/07 08:54:31;;;;;;;16.75;15.20;;;;;;;18.19;95.45;101565.50;5022761;28;20021;-81
2023/05/07 08:56:56;;;;;;;18.17;16.33;;;;;;;18.24;95.40;101562.41;5025970;28;20025;-81
2023/05/07 08:59:22;;;;;;;17.48;15.63;;;;;;;18.26;94.45;101573.75;5027911;28;20032;-80
2023/05/07 09:01:47;;;;;;;17.65;15.80;;;;;;;18.27;93.14;101567.44;5026629;28;20032;-79
2023/05/07 09:04:14;;;;;;;18.90;17.00;;;;;;;18.44;93.94;101572.84;5025955;28;20029;-79
2023/05/07 09:06:41;;;;;;;17.42;15.77;;;;;;;18.37;92.43;101571.72;5026114;28;20017;-79
2023/05/07 09:09:07;;;;;;;17.95;15.98;;;;;;;18.22;92.57;101567.03;5030860;28;20029;-81
2023/05/07 09:11:33;;;;;;;18.48;16.58;;;;;;;18.34;93.12;101573.84;5025168;28;20021;-80
2023/05/07 09:14:02;;;;;;;18.27;16.67;;;;;;;18.37;92.66;101573.56;5026057;28;20029;-81
2023/05/07 09:16:30;;;;;;;18.90;17.00;;;;;;;18.41;92.29;101574.94;5026303;28;20051;-81
2023/05/07 09:18:58;;;;;;;18.70;16.88;;;;;;;18.50;93.42;101579.41;5028012;28;20041;-80
2023/05/07 09:21:24;;;;;;;18.88;17.08;;;;;;;18.51;91.51;101578.44;5024461;28;20021;-81
2023/05/07 09:23:54;;;;;;;17.70;15.93;;;;;;;18.55;92.09;101579.81;5027351;28;20444;-81
2023/05/07 09:26:23;;;;;;;18.48;16.65;;;;;;;18.70;91.78;101575.69;5033630;28;20021;-81
2023/05/07 09:28:50;;;;;;;19.00;16.60;;;;;;;18.83;90.39;101579.84;5029786;28;20029;-79
2023/05/07 09:31:15;;;;;;;17.92;16.15;;;;;;;18.85;90.00;101575.22;5022005;28;20064;-80
2023/05/07 09:33:41;;;;;;;18.70;16.95;;;;;;;18.83;91.09;101575.34;5028799;28;20017;-80
2023/05/07 09:36:08;;;;;;;19.52;17.63;;;;;;;18.76;89.77;101577.75;5029365;28;20108;-79
2023/05/07 09:38:36;;;;;;;19.67;17.67;;;;;;;18.86;90.95;101576.88;5029070;28;20387;-79
2023/05/07 09:41:09;;;;;;;17.52;15.93;;;;;;;19.07;91.22;101580.09;5022373;28;20049;-80
2023/05/07 09:43:36;;;;;;;18.77;17.00;;;;;;;19.23;90.64;101580.28;5029743;28;20029;-80
2023/05/07 09:46:12;;;;;;;18.33;16.73;;;;;;;19.38;90.45;101583.25;5030356;28;20025;-79
2023/05/07 09:48:39;;;;;;;18.25;16.63;;;;;;;19.34;87.58;101582.72;5025757;28;20721;-80
2023/05/07 09:51:16;;;;;;;19.45;17.45;;;;;;;19.39;88.62;101585.78;5029824;28;20025;-80
2023/05/07 09:53:43;;;;;;;18.67;16.92;;;;;;;19.45;88.35;101581.66;5030608;28;20449;-80
2023/05/07 09:56:09;;;;;;;18.67;16.88;;;;;;;19.39;87.27;101585.78;5027754;28;20025;-80
2023/05/07 09:58:36;;;;;;;18.30;16.38;;;;;;;19.44;87.40;101584.47;5027108;28;20386;-80
2023/05/07 10:01:06;;;;;;;18.63;16.92;;;;;;;19.39;88.15;101585.78;5024761;28;20037;-80
2023/05/07 10:03:33;;;;;;;20.70;16.80;;;;;;;19.34;88.01;101587.22;5031611;28;20037;-80
2023/05/07 10:06:03;;;;;;;18.58;16.85;;;;;;;19.36;87.82;101586.06;5029246;28;20025;-79
2023/05/07 10:08:30;;;;;;;18.60;16.80;;;;;;;19.38;87.41;101592.09;5037700;28;20021;-80
2023/05/07 10:10:55;;;;;;;17.77;15.95;;;;;;;19.39;86.47;101582.25;5025244;28;20109;-80
2023/05/07 10:13:21;;;;;;;18.15;16.48;;;;;;;19.40;87.41;101590.13;5017853;28;20100;-80
2023/05/07 10:15:47;;;;;;;18.48;16.67;;;;;;;19.49;86.21;101584.84;5026381;28;20115;-79
2023/05/07 10:18:18;;;;;;;18.33;16.52;;;;;;;19.62;88.13;101577.34;5028850;28;20035;-79
2023/05/07 10:20:46;;;;;;;18.65;16.60;;;;;;;19.61;87.69;101578.31;5029493;28;20022;-80
2023/05/07 10:23:14;;;;;;;18.75;17.05;;;;;;;19.75;86.76;101580.44;5024179;28;20033;-79
2023/05/07 10:25:41;;;;;;;18.35;16.17;;;;;;;20.10;84.63;101573.34;5037051;28;20017;-80
2023/05/07 10:28:09;;;;;;;16.95;15.18;;;;;;;20.40;82.10;101575.53;5032697;28;20037;-79
2023/05/07 10:30:56;;;;;;;17.65;15.82;;;;;;;20.32;83.29;101572.78;5028017;28;20363;-79
2023/05/07 10:33:27;;;;;;;16.35;14.77;;;;;;;20.52;81.43;101579.63;5030654;28;20049;-79
2023/05/07 10:35:58;;;;;;;16.73;15.07;;;;;;;20.82;80.45;101583.59;5025641;28;20029;-80
2023/05/07 10:38:25;;;;;;;16.00;14.40;;;;;;;20.82;78.17;101580.91;5030306;28;20035;-79
2023/05/07 10:40:51;;;;;;;16.75;14.98;;;;;;;20.92;82.17;101580.75;5023286;28;20033;-79
2023/05/07 10:43:16;;;;;;;14.45;13.20;;;;;;;20.81;78.81;101579.22;5029794;28;20014;-79
2023/05/07 10:45:41;;;;;;;15.70;14.00;;;;;;;20.76;77.41;101572.66;5031218;28;20119;-79
2023/05/07 10:48:13;;;;;;;14.57;13.27;;;;;;;20.99;77.87;101570.25;5029186;28;20037;-79
2023/05/07 10:50:43;;;;;;;15.50;13.93;;;;;;;20.90;77.58;101566.72;5030094;28;20029;-79
2023/05/07 10:53:17;;;;;;;15.55;14.05;;;;;;;21.09;78.55;101581.63;5028848;28;20029;-79
2023/05/07 10:55:50;;;;;;;15.32;13.80;;;;;;;21.02;79.38;101584.13;5026146;28;20029;-79
2023/05/07 10:58:25;;;;;;;15.35;13.85;;;;;;;21.12;77.93;101582.13;5027300;28;20482;-80
2023/05/07 11:00:51;;;;;;;14.55;13.25;;;;;;;21.20;78.03;101582.16;5025121;28;20030;-80
2023/05/07 11:03:16;;;;;;;14.55;12.68;;;;;;;21.22;74.45;101584.69;5017532;28;20248;-80
2023/05/07 11:05:42;;;;;;;13.60;12.30;;;;;;;21.16;75.24;101582.66;5018119;28;20374;-80